createdAt,value
2017-09-17T00:01:26.964Z,9.40
2017-09-17T00:03:55.875Z,9.40
2017-09-17T00:06:24.039Z,9.40
2017-09-17T00:08:52.948Z,9.40
2017-09-17T00:11:21.115Z,9.40
2017-09-17T00:13:49.263Z,9.40
2017-09-17T00:16:18.192Z,9.50
2017-09-17T00:18:46.335Z,9.40
2017-09-17T00:21:15.264Z,9.50
2017-09-17T00:23:43.407Z,9.40
2017-09-17T00:26:11.545Z,9.50
2017-09-17T00:28:39.839Z,9.50
2017-09-17T00:31:08.730Z,9.60
2017-09-17T00:33:37.631Z,9.60
2017-09-17T00:36:05.809Z,9.60
2017-09-17T00:38:33.947Z,9.60
2017-09-17T00:41:02.854Z,9.60
2017-09-17T00:43:31.774Z,9.70
2017-09-17T00:45:59.915Z,9.70
2017-09-17T00:48:28.848Z,9.70
2017-09-17T00:50:56.989Z,9.60
2017-09-17T00:53:25.286Z,9.70
2017-09-17T00:55:53.431Z,9.70
2017-09-17T00:58:21.572Z,9.60
2017-09-17T01:00:50.530Z,9.70
2017-09-17T01:03:18.667Z,9.60
2017-09-17T01:05:46.931Z,9.70
2017-09-17T01:08:15.080Z,9.70
2017-09-17T01:10:43.234Z,9.70
2017-09-17T01:13:11.398Z,9.70
2017-09-17T01:15:39.567Z,9.70
2017-09-17T01:18:07.694Z,9.70
2017-09-17T01:20:35.865Z,9.70
2017-09-17T01:23:04.027Z,9.60
2017-09-17T01:25:32.950Z,9.60
2017-09-17T01:28:01.092Z,9.60
2017-09-17T01:30:30.026Z,9.60
2017-09-17T01:32:58.168Z,9.60
2017-09-17T01:35:26.297Z,9.60
2017-09-17T01:37:54.554Z,9.60
2017-09-17T01:40:22.683Z,9.60
2017-09-17T01:42:50.840Z,9.50
2017-09-17T01:45:19.776Z,9.50
2017-09-17T01:47:47.905Z,9.50
2017-09-17T01:50:16.177Z,9.50
2017-09-17T01:52:44.317Z,9.40
2017-09-17T01:55:12.459Z,9.50
2017-09-17T01:57:40.616Z,9.40
2017-09-17T02:00:08.755Z,9.40
2017-09-17T02:02:37.666Z,9.40
2017-09-17T02:05:05.855Z,9.40
2017-09-17T02:07:33.986Z,9.40
2017-09-17T02:10:02.914Z,9.30
2017-09-17T02:12:31.074Z,9.30
2017-09-17T02:14:59.219Z,9.30
2017-09-17T02:17:28.142Z,9.30
2017-09-17T02:19:56.273Z,9.30
2017-09-17T02:22:25.179Z,9.40
2017-09-17T02:24:54.098Z,9.30
2017-09-17T02:27:22.235Z,9.30
2017-09-17T02:29:51.274Z,9.30
2017-09-17T02:32:19.407Z,9.30
2017-09-17T02:34:48.307Z,9.30
2017-09-17T02:37:16.489Z,9.30
2017-09-17T02:39:44.646Z,9.30
2017-09-17T02:42:12.801Z,9.30
2017-09-17T02:44:40.965Z,9.30
2017-09-17T02:47:09.106Z,9.30
2017-09-17T02:49:37.269Z,9.30
2017-09-17T02:52:06.184Z,9.30
2017-09-17T02:54:34.344Z,9.30
2017-09-17T02:57:02.509Z,9.30
2017-09-17T02:59:30.660Z,9.30
2017-09-17T03:01:58.803Z,9.30
2017-09-17T03:04:27.077Z,9.30
2017-09-17T03:06:55.224Z,9.30
2017-09-17T03:09:23.368Z,9.30
2017-09-17T03:11:51.519Z,9.30
2017-09-17T03:14:19.694Z,9.30
2017-09-17T03:16:47.965Z,9.30
2017-09-17T03:19:16.105Z,9.30
2017-09-17T03:21:44.255Z,9.30
2017-09-17T03:24:12.415Z,9.30
2017-09-17T03:26:40.560Z,9.30
2017-09-17T03:29:08.722Z,9.30
2017-09-17T03:31:36.854Z,9.30
2017-09-17T03:34:05.770Z,9.30
2017-09-17T03:36:33.906Z,9.20
2017-09-17T03:39:02.850Z,9.30
2017-09-17T03:41:30.994Z,9.30
2017-09-17T03:43:59.330Z,9.30
2017-09-17T03:46:27.492Z,9.30
2017-09-17T03:48:55.636Z,9.30
2017-09-17T03:51:23.794Z,9.30
2017-09-17T03:53:51.937Z,9.30
2017-09-17T03:56:20.856Z,9.30
2017-09-17T03:58:49.022Z,9.30
2017-09-17T04:01:17.156Z,9.30
2017-09-17T04:03:45.287Z,9.30
2017-09-17T04:06:13.566Z,9.30
2017-09-17T04:08:41.691Z,9.30
2017-09-17T04:11:10.581Z,9.30
2017-09-17T04:13:39.513Z,9.30
2017-09-17T04:16:07.649Z,9.30
2017-09-17T04:18:35.811Z,9.30
2017-09-17T04:21:04.715Z,9.30
2017-09-17T04:23:32.881Z,9.30
2017-09-17T04:26:01.777Z,9.30
2017-09-17T04:28:29.922Z,9.30
2017-09-17T04:30:58.075Z,9.30
2017-09-17T04:33:26.227Z,9.30
2017-09-17T04:35:54.365Z,9.30
2017-09-17T04:38:22.518Z,9.30
2017-09-17T04:40:51.421Z,9.30
2017-09-17T04:43:19.584Z,9.30
2017-09-17T04:45:49.317Z,9.30
2017-09-17T04:48:17.467Z,9.30
2017-09-17T04:50:46.385Z,9.30
2017-09-17T04:53:14.577Z,9.30
2017-09-17T04:55:43.093Z,9.30
2017-09-17T04:58:12.011Z,9.30
2017-09-17T05:00:40.294Z,9.30
2017-09-17T05:03:08.476Z,9.30
2017-09-17T05:05:36.608Z,9.30
2017-09-17T05:08:05.539Z,9.30
2017-09-17T05:10:33.687Z,9.30
2017-09-17T05:13:01.839Z,9.30
2017-09-17T05:15:30.771Z,9.40
2017-09-17T05:17:58.927Z,9.40
2017-09-17T05:20:27.061Z,9.40
2017-09-17T05:22:55.193Z,9.40
2017-09-17T05:25:23.350Z,9.40
2017-09-17T05:27:51.515Z,9.50
2017-09-17T05:30:19.779Z,9.50
2017-09-17T05:32:47.931Z,9.50
2017-09-17T05:35:16.852Z,9.60
2017-09-17T05:37:45.031Z,9.60
2017-09-17T05:40:13.184Z,9.60
2017-09-17T05:42:41.322Z,9.70
2017-09-17T05:45:09.482Z,9.70
2017-09-17T05:47:37.949Z,9.70
2017-09-17T05:50:06.094Z,9.80
2017-09-17T05:52:34.230Z,9.80
2017-09-17T05:55:03.150Z,9.90
2017-09-17T05:57:31.319Z,9.90
2017-09-17T05:59:59.454Z,10.00
2017-09-17T06:02:27.639Z,10.10
2017-09-17T06:04:56.555Z,10.20
2017-09-17T06:07:24.701Z,10.20
2017-09-17T06:09:53.640Z,10.40
2017-09-17T06:12:21.775Z,10.40
2017-09-17T06:14:49.925Z,10.50
2017-09-17T06:17:18.961Z,10.60
2017-09-17T06:19:47.094Z,10.60
2017-09-17T06:22:16.007Z,10.70
2017-09-17T06:24:44.179Z,10.70
2017-09-17T06:27:12.340Z,10.80
2017-09-17T06:29:40.614Z,10.80
2017-09-17T06:32:09.520Z,10.90
2017-09-17T06:34:37.662Z,10.90
2017-09-17T06:37:06.700Z,11.00
2017-09-17T06:39:34.849Z,11.00
2017-09-17T06:42:03.000Z,11.00
2017-09-17T06:44:31.941Z,11.10
2017-09-17T06:47:00.078Z,11.10
2017-09-17T06:49:28.223Z,11.10
2017-09-17T06:51:57.160Z,11.20
2017-09-17T06:54:25.325Z,11.20
2017-09-17T06:56:53.467Z,11.20
2017-09-17T06:59:22.413Z,11.20
2017-09-17T07:01:50.562Z,11.20
2017-09-17T07:04:18.838Z,11.30
2017-09-17T07:06:47.005Z,11.30
2017-09-17T07:09:15.868Z,11.30
2017-09-17T07:11:44.825Z,11.40
2017-09-17T07:14:12.967Z,11.40
2017-09-17T07:16:41.125Z,11.40
2017-09-17T07:19:09.300Z,11.50
2017-09-17T07:21:37.447Z,11.50
2017-09-17T07:24:06.388Z,11.50
2017-09-17T07:26:34.560Z,11.50
2017-09-17T07:29:02.846Z,11.60
2017-09-17T07:31:31.002Z,11.60
2017-09-17T07:33:59.163Z,11.60
2017-09-17T07:36:27.345Z,11.60
2017-09-17T07:38:55.502Z,11.60
2017-09-17T07:41:23.663Z,11.60
2017-09-17T07:43:51.812Z,11.70
2017-09-17T07:46:20.860Z,11.70
2017-09-17T07:48:49.010Z,11.70
2017-09-17T07:51:17.164Z,11.70
2017-09-17T07:53:45.334Z,11.70
2017-09-17T07:56:13.492Z,11.80
2017-09-17T07:58:43.377Z,11.80
2017-09-17T08:01:11.539Z,11.80
2017-09-17T08:03:39.683Z,11.80
2017-09-17T08:06:07.978Z,11.80
2017-09-17T08:08:36.134Z,11.90
2017-09-17T08:11:04.613Z,11.90
2017-09-17T08:13:32.785Z,11.90
2017-09-17T08:16:01.549Z,12.00
2017-09-17T08:18:30.621Z,12.00
2017-09-17T08:20:59.569Z,12.10
2017-09-17T08:23:27.727Z,12.10
2017-09-17T08:25:55.930Z,12.20
2017-09-17T08:28:24.875Z,12.30
2017-09-17T08:30:53.040Z,12.30
2017-09-17T08:33:21.243Z,12.30
2017-09-17T08:35:49.457Z,12.40
2017-09-17T08:38:18.388Z,12.50
2017-09-17T08:40:46.660Z,12.50
2017-09-17T08:43:14.823Z,12.50
2017-09-17T08:45:42.965Z,12.60
2017-09-17T08:48:11.143Z,12.60
2017-09-17T08:50:40.038Z,12.80
2017-09-17T08:53:08.976Z,12.80
2017-09-17T08:55:37.133Z,12.70
2017-09-17T08:58:05.277Z,12.80
2017-09-17T09:00:33.453Z,12.90
2017-09-17T09:03:01.612Z,12.90
2017-09-17T09:05:30.528Z,13.10
2017-09-17T09:07:59.282Z,13.00
2017-09-17T09:10:28.187Z,13.20
2017-09-17T09:12:56.462Z,13.20
2017-09-17T09:15:24.607Z,13.30
2017-09-17T09:17:52.768Z,13.40
2017-09-17T09:20:20.931Z,13.40
2017-09-17T09:22:49.070Z,13.40
2017-09-17T09:25:17.355Z,13.40
2017-09-17T09:27:45.504Z,13.50
2017-09-17T09:30:13.652Z,13.60
2017-09-17T09:32:42.681Z,13.70
2017-09-17T09:35:11.634Z,13.70
2017-09-17T09:37:40.557Z,13.80
2017-09-17T09:40:08.726Z,13.80
2017-09-17T09:42:36.875Z,13.90
2017-09-17T09:45:05.052Z,13.90
2017-09-17T09:47:33.198Z,14.00
2017-09-17T09:50:01.394Z,14.00
2017-09-17T09:52:30.305Z,14.10
2017-09-17T09:54:58.460Z,14.10
2017-09-17T09:57:26.636Z,14.20
2017-09-17T09:59:54.783Z,14.40
2017-09-17T10:02:23.699Z,14.60
2017-09-17T10:04:51.960Z,14.60
2017-09-17T10:07:20.862Z,14.90
2017-09-17T10:09:49.008Z,14.90
2017-09-17T10:12:17.949Z,15.10
2017-09-17T10:14:46.112Z,15.10
2017-09-17T10:17:14.393Z,15.20
2017-09-17T10:19:42.540Z,15.30
2017-09-17T10:22:10.681Z,15.30
2017-09-17T10:24:39.725Z,15.20
2017-09-17T10:27:08.772Z,15.20
2017-09-17T10:29:37.677Z,15.20
2017-09-17T10:32:05.947Z,15.20
2017-09-17T10:34:34.860Z,15.20
2017-09-17T10:37:03.013Z,15.20
2017-09-17T10:39:31.956Z,15.20
2017-09-17T10:42:00.103Z,15.20
2017-09-17T10:44:28.272Z,15.10
2017-09-17T10:46:56.424Z,15.10
2017-09-17T10:49:24.590Z,15.20
2017-09-17T10:51:52.772Z,15.20
2017-09-17T10:54:20.926Z,15.30
2017-09-17T10:56:49.105Z,15.30
2017-09-17T10:59:18.007Z,15.50
2017-09-17T11:01:46.159Z,15.40
2017-09-17T11:04:15.180Z,15.50
2017-09-17T11:06:43.330Z,15.50
2017-09-17T11:09:12.247Z,15.60
2017-09-17T11:11:40.429Z,15.60
2017-09-17T11:14:08.586Z,15.60
2017-09-17T11:16:36.725Z,15.60
2017-09-17T11:19:05.754Z,15.60
2017-09-17T11:21:33.888Z,15.60
2017-09-17T11:24:02.781Z,15.70
2017-09-17T11:26:31.714Z,15.70
2017-09-17T11:28:59.842Z,15.70
2017-09-17T11:31:28.759Z,15.80
2017-09-17T11:33:56.923Z,15.80
2017-09-17T11:36:25.061Z,15.80
2017-09-17T11:38:54.103Z,15.90
2017-09-17T11:41:22.278Z,15.80
2017-09-17T11:43:50.420Z,15.90
2017-09-17T11:46:28.516Z,15.90
2017-09-17T11:48:56.661Z,16.00
2017-09-17T11:51:25.097Z,16.00
2017-09-17T11:53:53.246Z,16.10
2017-09-17T11:56:21.389Z,16.20
2017-09-17T11:58:50.650Z,16.40
2017-09-17T12:01:18.794Z,16.40
2017-09-17T12:03:46.955Z,16.40
2017-09-17T12:06:15.118Z,16.40
2017-09-17T12:08:44.156Z,16.50
2017-09-17T12:11:12.283Z,16.50
2017-09-17T12:13:40.445Z,16.50
2017-09-17T12:16:09.379Z,16.50
2017-09-17T12:18:37.527Z,16.50
2017-09-17T12:21:05.786Z,16.50
2017-09-17T12:23:34.693Z,16.30
2017-09-17T12:26:02.833Z,16.30
2017-09-17T12:28:31.020Z,16.20
2017-09-17T12:30:59.948Z,16.00
2017-09-17T12:33:28.992Z,16.00
2017-09-17T12:35:57.164Z,16.00
2017-09-17T12:38:26.069Z,15.90
2017-09-17T12:40:55.102Z,15.90
2017-09-17T12:43:23.249Z,15.80
2017-09-17T12:45:51.403Z,15.90
2017-09-17T12:48:20.337Z,15.90
2017-09-17T12:50:48.500Z,15.90
2017-09-17T12:53:16.630Z,15.90
2017-09-17T12:55:45.604Z,16.00
2017-09-17T12:58:13.747Z,16.00
2017-09-17T13:00:41.915Z,16.10
2017-09-17T13:03:10.075Z,16.10
2017-09-17T13:05:38.244Z,16.20
2017-09-17T13:08:06.431Z,16.20
2017-09-17T13:10:34.563Z,16.30
2017-09-17T13:13:03.490Z,16.30
2017-09-17T13:15:31.617Z,16.30
2017-09-17T13:18:00.543Z,16.30
2017-09-17T13:20:28.687Z,16.30
2017-09-17T13:22:56.822Z,16.20
2017-09-17T13:25:25.091Z,16.20
2017-09-17T13:27:53.257Z,16.20
2017-09-17T13:30:21.389Z,16.10
2017-09-17T13:32:49.566Z,16.00
2017-09-17T13:35:17.729Z,16.00
2017-09-17T13:37:45.939Z,16.00
2017-09-17T13:40:14.105Z,16.00
2017-09-17T13:42:42.254Z,16.00
2017-09-17T13:45:10.462Z,15.90
2017-09-17T13:47:38.612Z,15.80
2017-09-17T13:50:06.780Z,15.80
2017-09-17T13:52:35.447Z,15.80
2017-09-17T13:55:03.581Z,15.70
2017-09-17T13:57:32.521Z,15.60
2017-09-17T14:00:03.152Z,15.60
2017-09-17T14:02:36.833Z,15.50
2017-09-17T14:05:10.557Z,15.50
2017-09-17T14:10:47.382Z,15.40
2017-09-17T14:13:15.672Z,15.50
2017-09-17T14:15:43.821Z,15.60
2017-09-17T14:18:11.979Z,15.70
2017-09-17T14:20:40.138Z,15.80
2017-09-17T14:23:08.271Z,15.90
2017-09-17T14:25:37.249Z,16.00
2017-09-17T14:28:05.383Z,16.00
2017-09-17T14:30:33.581Z,16.00
2017-09-17T14:33:01.715Z,16.00
2017-09-17T14:35:29.876Z,15.90
2017-09-17T14:37:58.043Z,15.90
2017-09-17T14:40:26.181Z,15.70
2017-09-17T14:42:54.356Z,15.60
2017-09-17T14:45:22.694Z,15.60
2017-09-17T14:47:50.836Z,15.40
2017-09-17T14:50:19.019Z,15.30
2017-09-17T14:52:47.150Z,15.20
2017-09-17T14:55:16.090Z,15.10
2017-09-17T14:57:44.365Z,15.10
2017-09-17T15:00:12.503Z,15.00
2017-09-17T15:02:40.666Z,15.00
2017-09-17T15:05:09.604Z,14.90
2017-09-17T15:07:37.743Z,14.90
2017-09-17T15:10:05.881Z,14.80
2017-09-17T15:12:34.145Z,14.80
2017-09-17T15:15:02.296Z,14.80
2017-09-17T15:17:30.510Z,14.80
2017-09-17T15:19:59.473Z,14.70
2017-09-17T15:22:27.614Z,14.70
2017-09-17T15:24:55.810Z,14.70
2017-09-17T15:27:23.950Z,14.70
2017-09-17T15:29:52.085Z,14.70
2017-09-17T15:32:21.850Z,14.70
2017-09-17T15:34:49.986Z,14.60
2017-09-17T15:37:18.123Z,14.60
2017-09-17T15:39:46.304Z,14.60
2017-09-17T15:42:15.223Z,14.60
2017-09-17T15:44:43.411Z,14.50
2017-09-17T15:47:11.555Z,14.50
2017-09-17T15:49:40.477Z,14.50
2017-09-17T15:52:08.638Z,14.40
2017-09-17T15:54:36.798Z,14.40
2017-09-17T15:57:05.073Z,14.50
2017-09-17T15:59:33.342Z,14.50
2017-09-17T16:02:01.544Z,14.50
2017-09-17T16:04:29.881Z,14.50
2017-09-17T16:06:58.820Z,14.50
2017-09-17T16:09:26.977Z,14.50
2017-09-17T16:11:55.171Z,14.50
2017-09-17T16:14:23.323Z,14.50
2017-09-17T16:16:51.467Z,14.50
2017-09-17T16:19:20.396Z,14.40
2017-09-17T16:21:49.311Z,14.40
2017-09-17T16:24:17.482Z,14.30
2017-09-17T16:26:45.623Z,14.30
2017-09-17T16:29:13.825Z,14.20
2017-09-17T16:31:42.004Z,14.10
2017-09-17T16:34:10.149Z,14.10
2017-09-17T16:36:38.299Z,14.00
2017-09-17T16:39:06.493Z,13.90
2017-09-17T16:41:34.678Z,13.80
2017-09-17T16:44:02.841Z,13.70
2017-09-17T16:46:31.058Z,13.70
2017-09-17T16:49:00.190Z,13.60
2017-09-17T16:51:28.327Z,13.60
2017-09-17T16:53:57.254Z,13.50
2017-09-17T16:56:25.444Z,13.50
2017-09-17T16:58:53.583Z,13.40
2017-09-17T17:01:21.715Z,13.40
2017-09-17T17:03:49.880Z,13.30
2017-09-17T17:06:18.022Z,13.30
2017-09-17T17:08:46.183Z,13.20
2017-09-17T17:11:14.329Z,13.20
2017-09-17T17:13:42.512Z,13.10
2017-09-17T17:16:10.976Z,13.00
2017-09-17T17:18:39.127Z,13.00
2017-09-17T17:21:08.063Z,12.80
2017-09-17T17:23:36.277Z,12.80
2017-09-17T17:26:04.414Z,12.80
2017-09-17T17:28:32.579Z,12.70
2017-09-17T17:31:00.725Z,12.60
2017-09-17T17:33:28.912Z,12.50
2017-09-17T17:35:57.039Z,12.50
2017-09-17T17:38:25.319Z,12.40
2017-09-17T17:40:54.236Z,12.30
2017-09-17T17:43:22.383Z,12.30
2017-09-17T17:45:50.806Z,12.30
2017-09-17T17:48:19.009Z,12.20
2017-09-17T17:50:48.332Z,12.10
2017-09-17T17:53:17.356Z,12.00
2017-09-17T17:55:45.838Z,12.00
2017-09-17T17:58:14.179Z,12.00
2017-09-17T18:00:43.631Z,11.80
2017-09-17T18:03:12.368Z,11.80
2017-09-17T18:05:41.152Z,11.80
2017-09-17T18:08:09.782Z,11.70
2017-09-17T18:10:38.637Z,11.60
2017-09-17T18:13:07.205Z,11.60
2017-09-17T18:15:36.203Z,11.50
2017-09-17T18:18:04.804Z,11.40
2017-09-17T18:20:33.329Z,11.40
2017-09-17T18:23:02.050Z,11.20
2017-09-17T18:25:30.932Z,11.20
2017-09-17T18:28:01.102Z,11.10
2017-09-17T18:30:30.188Z,11.00
2017-09-17T18:33:00.313Z,10.90
2017-09-17T18:35:29.233Z,10.90
2017-09-17T18:37:58.845Z,10.80
2017-09-17T18:40:28.003Z,10.80
2017-09-17T18:42:58.124Z,10.70
2017-09-17T18:45:27.500Z,10.70
2017-09-17T18:47:57.715Z,10.60
2017-09-17T18:50:32.576Z,10.60
2017-09-17T18:53:01.938Z,10.50
2017-09-17T18:55:32.468Z,10.50
2017-09-17T18:58:02.411Z,10.50
2017-09-17T19:00:32.021Z,10.50
2017-09-17T19:03:01.330Z,10.40
2017-09-17T19:05:31.694Z,10.40
2017-09-17T19:08:01.021Z,10.40
2017-09-17T19:10:31.238Z,10.30
2017-09-17T19:13:02.324Z,10.30
2017-09-17T19:15:31.888Z,10.30
2017-09-17T19:18:02.104Z,10.30
2017-09-17T19:20:32.407Z,10.30
2017-09-17T19:23:01.963Z,10.20
2017-09-17T19:25:31.297Z,10.20
2017-09-17T19:28:00.925Z,10.20
2017-09-17T19:30:31.924Z,10.20
2017-09-17T19:33:01.400Z,10.20
2017-09-17T19:35:30.794Z,10.20
2017-09-17T19:38:00.999Z,10.10
2017-09-17T19:40:31.207Z,10.10
2017-09-17T19:43:01.568Z,10.10
2017-09-17T19:45:30.886Z,10.10
2017-09-17T19:48:00.218Z,10.10
2017-09-17T19:50:29.763Z,10.10
2017-09-17T19:52:59.059Z,10.00
2017-09-17T19:55:28.369Z,10.00
2017-09-17T19:57:58.044Z,10.00
2017-09-17T20:00:29.006Z,10.00
2017-09-17T20:02:58.425Z,10.00
2017-09-17T20:05:27.734Z,10.00
2017-09-17T20:07:57.041Z,10.00
2017-09-17T20:10:26.418Z,10.00
2017-09-17T20:12:55.716Z,10.00
2017-09-17T20:15:25.205Z,10.00
2017-09-17T20:17:54.430Z,10.00
2017-09-17T20:20:23.663Z,10.00
2017-09-17T20:22:52.999Z,10.00
2017-09-17T20:25:22.400Z,10.00
2017-09-17T20:27:51.532Z,9.90
2017-09-17T20:30:20.562Z,9.90
2017-09-17T20:32:49.373Z,9.90
2017-09-17T20:35:18.066Z,9.90
2017-09-17T20:37:46.558Z,9.90
2017-09-17T20:40:14.865Z,9.90
2017-09-17T20:42:43.086Z,9.90
2017-09-17T20:45:11.226Z,9.90
2017-09-17T20:47:40.197Z,9.90
2017-09-17T20:50:08.336Z,9.90
2017-09-17T20:52:36.502Z,9.90
2017-09-17T20:55:04.700Z,9.80
2017-09-17T20:57:32.858Z,9.80
2017-09-17T21:00:01.506Z,9.80
2017-09-17T21:02:29.650Z,9.70
2017-09-17T21:04:57.845Z,9.70
2017-09-17T21:07:26.820Z,9.70
2017-09-17T21:09:55.001Z,9.60
2017-09-17T21:12:23.197Z,9.60
2017-09-17T21:14:51.334Z,9.60
2017-09-17T21:17:20.302Z,9.50
2017-09-17T21:19:48.593Z,9.50
2017-09-17T21:22:17.638Z,9.40
2017-09-17T21:24:45.791Z,9.40
2017-09-17T21:27:13.917Z,9.40
2017-09-17T21:29:42.119Z,9.40
2017-09-17T21:32:10.254Z,9.40
2017-09-17T21:34:38.428Z,9.40
2017-09-17T21:37:06.573Z,9.40
2017-09-17T21:39:34.723Z,9.40
2017-09-17T21:42:02.877Z,9.50
2017-09-17T21:44:31.280Z,9.50
2017-09-17T21:46:59.529Z,9.50
2017-09-17T21:49:27.670Z,9.50
2017-09-17T21:51:56.580Z,9.50
2017-09-17T21:54:25.511Z,9.40
2017-09-17T21:56:53.660Z,9.40
2017-09-17T21:59:21.828Z,9.50
2017-09-17T22:01:50.225Z,9.50
2017-09-17T22:04:18.395Z,9.50
2017-09-17T22:06:46.536Z,9.40
2017-09-17T22:09:15.441Z,9.40
2017-09-17T22:11:43.644Z,9.30
2017-09-17T22:14:11.782Z,9.30
2017-09-17T22:16:39.930Z,9.30
2017-09-17T22:19:08.827Z,9.20
2017-09-17T22:21:37.718Z,9.20
2017-09-17T22:24:06.664Z,9.20
2017-09-17T22:26:34.824Z,9.10
2017-09-17T22:29:02.995Z,9.10
2017-09-17T22:31:31.167Z,9.10
2017-09-17T22:33:59.340Z,9.10
2017-09-17T22:36:27.473Z,9.10
2017-09-17T22:38:55.641Z,9.10
2017-09-17T22:41:23.791Z,9.10
2017-09-17T22:43:51.931Z,9.10
2017-09-17T22:46:21.743Z,9.10
2017-09-17T22:48:49.874Z,9.10
2017-09-17T22:51:18.121Z,9.10
2017-09-17T22:53:47.030Z,9.10
2017-09-17T22:56:15.158Z,9.10
2017-09-17T22:58:43.318Z,9.10
2017-09-17T23:01:11.460Z,9.10
2017-09-17T23:03:39.724Z,9.20
2017-09-17T23:06:07.922Z,9.30
2017-09-17T23:08:36.064Z,9.30
2017-09-17T23:11:04.225Z,9.30
2017-09-17T23:13:33.119Z,9.40
2017-09-17T23:16:02.142Z,9.40
2017-09-17T23:18:30.287Z,9.40
2017-09-17T23:20:58.421Z,9.50
2017-09-17T23:23:26.627Z,9.50
2017-09-17T23:25:55.528Z,9.60
2017-09-17T23:28:23.803Z,9.60
2017-09-17T23:30:51.943Z,9.60
2017-09-17T23:33:20.088Z,9.70
2017-09-17T23:35:48.434Z,9.70
2017-09-17T23:38:16.666Z,9.70
2017-09-17T23:40:44.941Z,9.80
2017-09-17T23:43:13.078Z,9.80
2017-09-17T23:45:41.215Z,9.80
2017-09-17T23:48:09.359Z,9.90
2017-09-17T23:50:38.270Z,9.90
2017-09-17T23:53:06.444Z,9.90
2017-09-17T23:55:34.592Z,9.90
2017-09-17T23:58:03.477Z,9.90
